Time;durP1;ratioP1;P1;durP2;ratioP2;P2;SDS_P1;SDS_P2;PMS_P1;PMS_P2;Temp;Humidity;BMP_temperature;BMP_pressure;BME280_temperature;BME280_humidity;BME280_pressure;Samples;Min_cycle;Max_cycle;Signal;HPM_P1;HPM_P2
2022/07/10 00:00:43;;;;;;;6.53;5.25;;;29.50;99.90;;;;;;5025745;23;20136;-46
2022/07/10 00:03:09;;;;;;;7.20;5.00;;;29.50;99.90;;;;;;4974357;28;20031;-46
2022/07/10 00:05:35;;;;;;;5.72;4.65;;;29.50;99.90;;;;;;4991704;28;20373;-46
2022/07/10 00:08:01;;;;;;;6.25;4.90;;;29.50;99.90;;;;;;4990997;28;20038;-46
2022/07/10 00:10:28;;;;;;;6.43;5.20;;;29.40;99.90;;;;;;4991663;28;20101;-44
2022/07/10 00:12:55;;;;;;;5.45;4.93;;;29.50;99.90;;;;;;4992107;28;20084;-46
2022/07/10 00:15:20;;;;;;;6.60;5.30;;;29.50;99.90;;;;;;4991993;28;20034;-46
2022/07/10 00:17:46;;;;;;;5.75;5.15;;;29.40;99.90;;;;;;4974366;28;20018;-44
2022/07/10 00:20:14;;;;;;;6.43;5.38;;;29.40;99.90;;;;;;4991828;28;20034;-44
2022/07/10 00:22:40;;;;;;;7.60;5.30;;;29.40;99.90;;;;;;4991671;28;20022;-45
2022/07/10 00:25:09;;;;;;;7.05;4.82;;;29.40;99.90;;;;;;4991662;28;20058;-44
2022/07/10 00:27:34;;;;;;;6.78;5.57;;;29.40;99.90;;;;;;4991789;28;20019;-45
2022/07/10 00:30:01;;;;;;;5.53;4.72;;;29.40;99.90;;;;;;4974184;28;20077;-44
2022/07/10 00:32:27;;;;;;;5.40;4.68;;;29.40;99.90;;;;;;4991782;28;20022;-44
2022/07/10 00:34:53;;;;;;;7.28;5.25;;;29.40;99.90;;;;;;4992039;28;20033;-45
2022/07/10 00:37:21;;;;;;;4.88;4.35;;;29.40;99.90;;;;;;4991685;28;20073;-45
2022/07/10 00:39:47;;;;;;;6.20;4.82;;;29.40;99.90;;;;;;4991733;28;20034;-44
2022/07/10 00:42:14;;;;;;;5.80;5.05;;;29.40;99.90;;;;;;4991630;28;20073;-44
2022/07/10 00:44:41;;;;;;;5.30;4.50;;;29.40;99.90;;;;;;4991606;28;20101;-44
2022/07/10 00:47:08;;;;;;;5.15;4.30;;;29.40;99.90;;;;;;4991600;28;20029;-44
2022/07/10 00:49:36;;;;;;;5.32;4.82;;;29.40;99.90;;;;;;4991497;28;20053;-44
2022/07/10 00:52:04;;;;;;;6.25;5.20;;;29.40;99.90;;;;;;4991521;28;20070;-44
2022/07/10 00:54:31;;;;;;;5.75;4.43;;;29.30;99.90;;;;;;4974003;28;20034;-44
2022/07/10 00:56:57;;;;;;;4.80;4.10;;;29.30;99.90;;;;;;4991812;28;20022;-45
2022/07/10 00:59:25;;;;;;;5.70;4.63;;;29.30;99.90;;;;;;5007698;23;20027;-49
2022/07/10 01:01:51;;;;;;;6.80;4.38;;;29.30;99.90;;;;;;4971584;28;20503;-45
2022/07/10 01:04:17;;;;;;;5.43;4.68;;;29.30;99.90;;;;;;4972059;28;20564;-45
2022/07/10 01:06:43;;;;;;;4.45;4.05;;;29.30;99.90;;;;;;4971835;28;20121;-45
2022/07/10 01:09:09;;;;;;;5.53;4.60;;;29.30;99.90;;;;;;4971942;28;20113;-45
2022/07/10 01:11:36;;;;;;;5.40;4.35;;;29.30;99.90;;;;;;4971956;28;20507;-45
2022/07/10 01:14:02;;;;;;;;;;;29.30;99.90;;;;;;4972468;28;20438;-45
2022/07/10 01:16:29;;;;;;;5.43;4.80;;;29.30;99.90;;;;;;4972021;28;19914;-46
2022/07/10 01:18:55;;;;;;;5.47;4.77;;;29.30;99.90;;;;;;4974488;28;20089;-45
2022/07/10 01:21:29;;;;;;;5.25;4.40;;;29.30;99.90;;;;;;4975497;28;20273;-45
2022/07/10 01:23:55;;;;;;;5.05;4.53;;;29.30;99.90;;;;;;4975752;28;20062;-45
2022/07/10 01:26:23;;;;;;;5.20;4.40;;;29.30;99.90;;;;;;4975531;28;20065;-45
2022/07/10 01:28:53;;;;;;;6.18;4.70;;;29.30;99.90;;;;;;4975358;28;20046;-46
2022/07/10 01:31:23;;;;;;;5.63;4.70;;;29.30;99.90;;;;;;4975297;28;20046;-45
2022/07/10 01:33:49;;;;;;;4.53;4.13;;;29.20;99.90;;;;;;4975379;28;20027;-45
2022/07/10 01:36:16;;;;;;;5.15;3.80;;;29.30;99.90;;;;;;4975280;28;20366;-45
2022/07/10 01:38:42;;;;;;;5.38;4.65;;;29.20;99.90;;;;;;4975289;28;20540;-45
2022/07/10 01:41:08;;;;;;;5.30;4.45;;;29.30;99.90;;;;;;4975198;28;20392;-45
2022/07/10 01:43:37;;;;;;;4.80;4.20;;;29.30;99.90;;;;;;4975127;28;20506;-45
2022/07/10 01:46:04;;;;;;;4.53;3.92;;;29.20;99.90;;;;;;4975080;28;20041;-45
2022/07/10 01:48:30;;;;;;;5.18;4.03;;;29.20;99.90;;;;;;4975231;28;20031;-45
2022/07/10 01:50:57;;;;;;;5.05;4.50;;;29.20;99.90;;;;;;4975188;28;20050;-46
2022/07/10 01:53:23;;;;;;;5.97;4.00;;;29.20;99.90;;;;;;4974930;28;20031;-45
2022/07/10 01:55:49;;;;;;;5.55;4.45;;;29.20;99.90;;;;;;4974938;28;20408;-46
2022/07/10 01:58:15;;;;;;;5.35;4.22;;;29.20;99.90;;;;;;4957678;28;20110;-46
2022/07/10 02:00:40;;;;;;;4.55;4.03;;;29.20;99.90;;;;;;4975246;28;20401;-45
2022/07/10 02:05:50;;;;;;;4.30;3.63;;;29.20;99.90;;;;;;4974588;28;20667;-46
2022/07/10 02:08:16;;;;;;;4.75;3.88;;;29.20;99.90;;;;;;4974584;28;20109;-45
2022/07/10 02:10:42;;;;;;;4.82;4.30;;;29.20;99.90;;;;;;4957115;28;20062;-45
2022/07/10 02:13:09;;;;;;;6.07;3.85;;;29.20;99.90;;;;;;4974566;28;20058;-47
2022/07/10 02:15:35;;;;;;;4.45;3.50;;;29.20;99.90;;;;;;4974592;28;20037;-45
2022/07/10 02:18:01;;;;;;;5.82;3.70;;;29.20;99.90;;;;;;4974694;28;20023;-45
2022/07/10 02:20:26;;;;;;;5.47;4.13;;;29.20;99.90;;;;;;4974734;28;20492;-45
2022/07/10 02:22:52;;;;;;;4.90;3.80;;;29.20;99.90;;;;;;4974380;28;20504;-45
2022/07/10 02:25:18;;;;;;;4.35;3.72;;;29.10;99.90;;;;;;4974309;28;20121;-44
2022/07/10 02:27:44;;;;;;;5.45;3.80;;;29.10;99.90;;;;;;4974326;28;20029;-45
2022/07/10 02:30:09;;;;;;;4.60;4.10;;;29.10;99.90;;;;;;4973490;28;20037;-46
2022/07/10 02:32:35;;;;;;;5.90;4.07;;;29.10;99.90;;;;;;4974266;28;20592;-45
2022/07/10 02:35:01;;;;;;;4.90;4.00;;;29.10;99.90;;;;;;4974384;28;20034;-45
2022/07/10 02:37:27;;;;;;;4.80;3.70;;;29.10;99.90;;;;;;4974113;28;20038;-46
2022/07/10 02:39:52;;;;;;;4.60;3.22;;;29.10;99.90;;;;;;4974024;28;20034;-46
2022/07/10 02:42:18;;;;;;;4.95;3.38;;;29.10;99.90;;;;;;4974104;28;20435;-45
2022/07/10 02:44:44;;;;;;;4.60;3.70;;;29.10;99.90;;;;;;4973844;28;20470;-45
2022/07/10 02:47:09;;;;;;;3.58;3.28;;;29.10;99.90;;;;;;4973916;28;20023;-45
2022/07/10 02:49:35;;;;;;;4.25;3.40;;;29.10;99.90;;;;;;4973877;28;20030;-45
2022/07/10 02:52:01;;;;;;;4.47;3.88;;;29.10;99.90;;;;;;4974035;28;20033;-45
2022/07/10 02:54:27;;;;;;;4.45;3.40;;;29.10;99.90;;;;;;4973789;28;20142;-46
2022/07/10 02:56:52;;;;;;;4.57;3.45;;;29.10;99.90;;;;;;4973812;28;20030;-45
2022/07/10 02:59:18;;;;;;;4.10;3.55;;;29.10;99.90;;;;;;4974433;28;20026;-45
2022/07/10 03:01:44;;;;;;;4.03;3.03;;;29.10;99.90;;;;;;4973593;28;20413;-45
2022/07/10 03:04:09;;;;;;;3.50;3.20;;;29.10;99.90;;;;;;4973676;28;20362;-45
2022/07/10 03:06:35;;;;;;;3.88;3.13;;;29.10;99.90;;;;;;4973526;28;20027;-46
2022/07/10 03:09:02;;;;;;;3.47;2.95;;;29.10;99.90;;;;;;4973682;28;20033;-45
2022/07/10 03:11:27;;;;;;;3.53;3.20;;;29.10;99.90;;;;;;4973467;28;20127;-45
2022/07/10 03:13:53;;;;;;;3.67;3.25;;;29.10;99.90;;;;;;4973481;28;20185;-45
2022/07/10 03:16:19;;;;;;;3.80;3.22;;;29.10;99.90;;;;;;4973458;28;20545;-46
2022/07/10 03:18:45;;;;;;;3.22;2.92;;;29.10;99.90;;;;;;4973232;28;20057;-45
2022/07/10 03:21:11;;;;;;;2.95;2.65;;;29.10;99.90;;;;;;4973195;28;20027;-45
2022/07/10 03:23:39;;;;;;;3.97;3.00;;;29.10;99.90;;;;;;4956075;28;20298;-45
2022/07/10 03:26:05;;;;;;;3.78;2.90;;;29.10;99.90;;;;;;4973341;28;20497;-45
2022/07/10 03:28:31;;;;;;;2.92;2.53;;;29.10;99.90;;;;;;4973351;28;20370;-46
2022/07/10 03:30:57;;;;;;;3.38;3.00;;;29.10;99.90;;;;;;4973156;28;20108;-45
2022/07/10 03:33:22;;;;;;;3.42;2.83;;;29.10;99.90;;;;;;4973054;28;20114;-46
2022/07/10 03:35:48;;;;;;;5.22;2.78;;;29.00;99.90;;;;;;4973123;28;20066;-45
2022/07/10 03:38:14;;;;;;;3.22;2.75;;;29.10;99.90;;;;;;4973188;28;20038;-45
2022/07/10 03:40:40;;;;;;;3.03;2.60;;;29.00;99.90;;;;;;4972899;28;20527;-46
2022/07/10 03:43:06;;;;;;;3.15;2.70;;;29.00;99.90;;;;;;4972876;28;20029;-46
2022/07/10 03:45:31;;;;;;;3.70;3.05;;;29.00;99.90;;;;;;4955743;28;20049;-46
2022/07/10 03:47:57;;;;;;;3.00;2.70;;;29.00;99.90;;;;;;4972923;28;20055;-45
2022/07/10 03:50:23;;;;;;;2.90;2.33;;;29.00;99.90;;;;;;4972921;28;20046;-46
2022/07/10 03:52:49;;;;;;;3.67;2.50;;;29.00;99.90;;;;;;4955339;28;20037;-46
2022/07/10 03:55:15;;;;;;;2.42;2.20;;;29.00;99.90;;;;;;4972630;28;20036;-46
2022/07/10 03:58:02;;;;;;;2.75;2.45;;;29.00;99.90;;;;;;4972647;28;20086;-46
2022/07/10 04:00:28;;;;;;;;;;;29.00;99.90;;;;;;4973834;28;20059;-46
2022/07/10 04:03:05;;;;;;;2.80;2.38;;;29.00;99.90;;;;;;4972602;28;19913;-46
2022/07/10 04:05:31;;;;;;;3.53;2.10;;;29.00;99.90;;;;;;4972619;28;20045;-45
2022/07/10 04:07:58;;;;;;;3.28;2.40;;;29.00;99.90;;;;;;4972528;28;20247;-46
2022/07/10 04:10:25;;;;;;;3.22;2.67;;;29.00;99.90;;;;;;4972532;28;20106;-46
2022/07/10 04:12:51;;;;;;;2.60;2.20;;;29.00;99.90;;;;;;4955230;28;20444;-46
2022/07/10 04:15:18;;;;;;;2.67;2.13;;;29.00;99.90;;;;;;4972331;28;20030;-46
2022/07/10 04:17:44;;;;;;;3.03;2.55;;;29.00;99.90;;;;;;4972652;28;20031;-46
2022/07/10 04:20:10;;;;;;;2.78;2.20;;;29.00;99.90;;;;;;4972647;28;20045;-46
2022/07/10 04:22:36;;;;;;;3.05;2.00;;;29.00;99.90;;;;;;4972297;28;20493;-46
2022/07/10 04:25:03;;;;;;;2.78;2.50;;;29.00;99.90;;;;;;4972487;28;20089;-46
2022/07/10 04:27:29;;;;;;;2.88;2.17;;;29.00;99.90;;;;;;4972495;28;20077;-45
2022/07/10 04:29:55;;;;;;;2.50;2.17;;;29.00;99.90;;;;;;4972261;28;20848;-46
2022/07/10 04:32:20;;;;;;;2.88;2.30;;;29.00;99.90;;;;;;4972400;28;20027;-46
2022/07/10 04:34:46;;;;;;;2.67;2.10;;;28.90;99.90;;;;;;4972240;28;20380;-46
2022/07/10 04:37:12;;;;;;;2.40;2.17;;;29.00;99.90;;;;;;4972296;28;20155;-46
2022/07/10 04:39:39;;;;;;;2.63;2.13;;;28.90;99.90;;;;;;4972433;28;20519;-45
2022/07/10 04:42:06;;;;;;;2.67;2.00;;;28.90;99.90;;;;;;4972376;28;20700;-47
2022/07/10 04:44:32;;;;;;;4.72;2.63;;;28.90;99.90;;;;;;4972236;28;20023;-46
2022/07/10 04:46:58;;;;;;;2.97;2.17;;;28.90;99.90;;;;;;4972309;28;20454;-46
2022/07/10 04:49:24;;;;;;;3.08;1.92;;;28.90;99.90;;;;;;4972138;28;20051;-46
2022/07/10 04:51:50;;;;;;;2.13;1.92;;;28.90;99.90;;;;;;4972176;28;20117;-45
2022/07/10 04:54:16;;;;;;;2.55;2.20;;;28.90;99.90;;;;;;4975168;28;20102;-46
2022/07/10 04:56:42;;;;;;;2.47;1.75;;;28.90;99.90;;;;;;4975952;28;20491;-46
2022/07/10 04:59:09;;;;;;;2.28;1.83;;;28.90;99.90;;;;;;4976266;28;20101;-45
2022/07/10 05:01:35;;;;;;;1.92;1.73;;;28.90;99.90;;;;;;4958434;28;20064;-46
2022/07/10 05:04:01;;;;;;;2.60;2.20;;;28.90;99.90;;;;;;4976028;28;20035;-46
2022/07/10 05:06:27;;;;;;;2.03;1.70;;;28.90;99.90;;;;;;4975738;28;20030;-45
2022/07/10 05:08:53;;;;;;;2.97;2.38;;;28.90;99.90;;;;;;4975571;28;20097;-45
2022/07/10 05:11:19;;;;;;;2.92;2.05;;;28.90;99.90;;;;;;4975573;28;20042;-46
2022/07/10 05:13:46;;;;;;;3.85;2.63;;;28.90;99.90;;;;;;4975580;28;20106;-46
2022/07/10 05:16:13;;;;;;;2.03;1.80;;;28.90;99.90;;;;;;4975754;28;20049;-46
2022/07/10 05:18:39;;;;;;;2.22;2.03;;;28.90;99.90;;;;;;4975739;28;20516;-46
2022/07/10 05:21:06;;;;;;;2.53;1.98;;;28.90;99.90;;;;;;4975544;28;20114;-45
2022/07/10 05:23:32;;;;;;;1.92;1.73;;;28.90;99.90;;;;;;4975435;28;20564;-46
2022/07/10 05:25:57;;;;;;;2.13;1.60;;;28.90;99.90;;;;;;4975432;28;20114;-46
2022/07/10 05:28:23;;;;;;;2.90;2.10;;;28.90;99.90;;;;;;4975324;28;20138;-46
2022/07/10 05:30:49;;;;;;;2.85;1.60;;;28.90;99.90;;;;;;4975148;28;20043;-45
2022/07/10 05:33:15;;;;;;;2.50;2.05;;;28.90;99.90;;;;;;4975323;28;20035;-46
2022/07/10 05:35:41;;;;;;;2.70;1.95;;;28.90;99.90;;;;;;4975516;28;20516;-46
2022/07/10 05:38:07;;;;;;;2.72;1.77;;;28.90;99.90;;;;;;4975441;28;20059;-45
2022/07/10 05:40:33;;;;;;;2.95;1.90;;;28.90;99.90;;;;;;4975397;28;20023;-46
2022/07/10 05:42:59;;;;;;;1.85;1.60;;;28.90;99.90;;;;;;4975203;28;20031;-45
2022/07/10 05:45:25;;;;;;;2.58;2.15;;;28.90;99.90;;;;;;4975131;28;20031;-45
2022/07/10 05:47:51;;;;;;;1.98;1.75;;;28.90;99.90;;;;;;4975050;28;20034;-46
2022/07/10 05:50:17;;;;;;;2.20;1.75;;;28.90;99.90;;;;;;4975074;28;20027;-46
2022/07/10 05:52:43;;;;;;;3.10;2.17;;;28.90;99.90;;;;;;4957555;28;20030;-46
2022/07/10 05:55:09;;;;;;;2.97;2.50;;;28.90;99.90;;;;;;4975205;28;20366;-46
2022/07/10 05:57:35;;;;;;;2.20;1.95;;;28.90;99.90;;;;;;4974944;28;20031;-46
2022/07/10 06:00:03;;;;;;;2.22;1.90;;;28.90;99.90;;;;;;4974695;28;20471;-46
2022/07/10 06:02:29;;;;;;;2.10;1.90;;;28.90;99.90;;;;;;4974745;28;20057;-45
2022/07/10 06:04:55;;;;;;;2.00;1.70;;;28.90;99.90;;;;;;4973689;28;20050;-47
2022/07/10 06:07:21;;;;;;;5.50;2.10;;;28.90;99.90;;;;;;4974619;28;20029;-46
2022/07/10 06:09:46;;;;;;;2.30;2.08;;;28.90;99.90;;;;;;4974531;28;20034;-46
2022/07/10 06:12:12;;;;;;;2.75;2.03;;;28.90;99.90;;;;;;4974897;28;20477;-46
2022/07/10 06:14:38;;;;;;;1.95;1.70;;;28.90;99.90;;;;;;4974597;28;20545;-50
2022/07/10 06:17:04;;;;;;;2.25;1.83;;;28.90;99.90;;;;;;4974647;28;20108;-46
2022/07/10 06:19:30;;;;;;;1.85;1.67;;;28.90;99.90;;;;;;4974448;28;20025;-46
2022/07/10 06:24:39;;;;;;;2.00;1.80;;;28.90;99.90;;;;;;4974913;28;20034;-46
2022/07/10 06:27:05;;;;;;;1.90;1.70;;;28.90;99.90;;;;;;4974255;28;20397;-46
2022/07/10 06:29:31;;;;;;;2.13;1.90;;;28.90;99.90;;;;;;4956918;28;20065;-46
2022/07/10 06:31:57;;;;;;;1.70;1.60;;;28.90;99.90;;;;;;4974179;28;20038;-46
2022/07/10 06:34:22;;;;;;;2.67;2.05;;;28.90;99.90;;;;;;4974329;28;20059;-46
2022/07/10 06:36:49;;;;;;;2.15;1.80;;;28.90;99.90;;;;;;4974130;28;20046;-46
2022/07/10 06:39:15;;;;;;;2.05;1.85;;;28.90;99.90;;;;;;4974030;28;20495;-45
2022/07/10 06:41:41;;;;;;;1.90;1.50;;;28.90;99.90;;;;;;4974261;28;20034;-45
2022/07/10 06:44:07;;;;;;;1.95;1.83;;;28.90;99.90;;;;;;4956561;28;20045;-45
2022/07/10 06:46:33;;;;;;;2.90;1.88;;;29.00;99.90;;;;;;4973834;28;20027;-46
2022/07/10 06:49:00;;;;;;;2.63;1.95;;;28.90;99.90;;;;;;4973927;28;20077;-46
2022/07/10 06:51:26;;;;;;;;;;;29.00;99.90;;;;;;4974104;28;20109;-46
2022/07/10 06:53:52;;;;;;;2.45;1.88;;;29.00;99.90;;;;;;4973748;28;20045;-46
2022/07/10 06:56:18;;;;;;;2.25;1.70;;;29.00;99.90;;;;;;4974059;28;20389;-46
2022/07/10 06:58:44;;;;;;;2.10;1.70;;;29.00;99.90;;;;;;4973840;28;20031;-46
2022/07/10 07:01:10;;;;;;;2.33;1.85;;;29.00;99.90;;;;;;4973476;28;20061;-46
2022/07/10 07:03:35;;;;;;;3.35;1.85;;;29.00;99.90;;;;;;4973714;28;20031;-46
2022/07/10 07:06:01;;;;;;;2.15;1.85;;;29.00;99.90;;;;;;4973472;28;20109;-45
2022/07/10 07:08:29;;;;;;;2.53;1.90;;;29.00;99.90;;;;;;4973653;28;20062;-46
2022/07/10 07:10:55;;;;;;;1.88;1.40;;;29.00;99.90;;;;;;4973397;28;20039;-46
2022/07/10 07:13:21;;;;;;;1.85;1.65;;;29.00;99.90;;;;;;4973370;28;20082;-45
2022/07/10 07:15:57;;;;;;;2.28;1.67;;;29.00;99.90;;;;;;4973291;28;20059;-46
2022/07/10 07:18:31;;;;;;;2.00;1.80;;;29.00;99.90;;;;;;4973308;28;20038;-46
2022/07/10 07:23:44;;;;;;;;;;;29.10;99.90;;;;;;4974325;28;20041;-46
2022/07/10 07:26:10;;;;;;;2.50;2.15;;;29.10;99.90;;;;;;4973299;28;19906;-46
2022/07/10 07:28:35;;;;;;;2.70;2.10;;;29.10;99.90;;;;;;4973197;28;20477;-46
2022/07/10 07:31:01;;;;;;;2.05;1.85;;;29.10;99.90;;;;;;4973119;28;20138;-46
2022/07/10 07:33:27;;;;;;;1.92;1.63;;;29.10;99.90;;;;;;4973319;28;20090;-46
2022/07/10 07:35:53;;;;;;;2.70;1.98;;;29.10;99.90;;;;;;4955884;28;20081;-46
2022/07/10 07:38:18;;;;;;;2.67;1.85;;;29.10;99.90;;;;;;4973156;28;20054;-46
2022/07/10 07:40:44;;;;;;;2.50;1.92;;;29.10;99.90;;;;;;4955898;28;20035;-45
2022/07/10 07:43:11;;;;;;;2.30;1.88;;;29.10;99.90;;;;;;4972933;28;20022;-46
2022/07/10 07:45:37;;;;;;;2.45;1.98;;;29.10;99.90;;;;;;4973120;28;20050;-46
2022/07/10 07:48:03;;;;;;;3.47;2.13;;;29.10;99.90;;;;;;4972847;28;20061;-45
2022/07/10 07:50:34;;;;;;;3.63;2.38;;;29.10;99.90;;;;;;4972858;28;20073;-46
2022/07/10 07:53:02;;;;;;;2.70;1.85;;;29.10;99.90;;;;;;4972757;28;20029;-45
2022/07/10 07:55:29;;;;;;;2.00;1.80;;;29.10;99.90;;;;;;4955447;28;20532;-46
2022/07/10 07:57:56;;;;;;;2.17;1.98;;;29.10;99.90;;;;;;4955244;28;20393;-45
2022/07/10 08:00:28;;;;;;;3.03;2.03;;;29.10;99.90;;;;;;4960357;28;20050;-46
2022/07/10 08:02:56;;;;;;;3.03;2.17;;;29.10;99.90;;;;;;4972772;28;20165;-46
2022/07/10 08:05:23;;;;;;;2.28;1.88;;;29.10;99.90;;;;;;4972623;28;20034;-45
2022/07/10 08:08:04;;;;;;;2.30;2.10;;;29.10;99.90;;;;;;4972748;28;20038;-46
2022/07/10 08:10:30;;;;;;;3.17;2.30;;;29.10;99.90;;;;;;4972341;28;20485;-47
2022/07/10 08:12:56;;;;;;;2.63;2.23;;;29.10;99.90;;;;;;4972578;28;20030;-46
2022/07/10 08:15:23;;;;;;;3.25;2.80;;;29.20;99.90;;;;;;4972495;28;20037;-46
2022/07/10 08:17:54;;;;;;;2.05;1.88;;;29.10;99.90;;;;;;4972558;28;20036;-46
2022/07/10 08:20:20;;;;;;;3.38;2.10;;;29.10;99.90;;;;;;4972579;28;20022;-46
2022/07/10 08:22:46;;;;;;;2.45;2.25;;;29.20;99.90;;;;;;4971290;28;20497;-46
2022/07/10 08:25:12;;;;;;;3.20;2.90;;;29.10;99.90;;;;;;4972269;28;20401;-45
2022/07/10 08:27:39;;;;;;;3.28;2.30;;;29.20;99.90;;;;;;4971723;28;20035;-46
2022/07/10 08:30:06;;;;;;;3.47;2.67;;;29.20;99.90;;;;;;4970963;28;20041;-46
2022/07/10 08:32:32;;;;;;;4.13;2.88;;;29.20;99.90;;;;;;4972176;28;20152;-46
2022/07/10 08:34:59;;;;;;;2.92;2.22;;;29.20;99.90;;;;;;4972401;28;20085;-46
2022/07/10 08:37:24;;;;;;;3.60;2.72;;;29.20;99.90;;;;;;4972200;28;20378;-47
2022/07/10 08:39:51;;;;;;;3.85;2.85;;;29.20;99.90;;;;;;4972419;28;20041;-47
2022/07/10 08:42:18;;;;;;;4.25;2.90;;;29.20;99.90;;;;;;4971377;28;20102;-47
2022/07/10 08:44:44;;;;;;;4.28;3.13;;;29.20;99.90;;;;;;4972032;28;20038;-47
2022/07/10 08:47:14;;;;;;;4.00;3.10;;;29.20;99.90;;;;;;4972265;28;20081;-47
2022/07/10 08:49:47;;;;;;;3.63;3.05;;;29.20;99.90;;;;;;4972342;28;20027;-47
2022/07/10 08:52:21;;;;;;;3.90;2.80;;;29.20;99.90;;;;;;4972380;28;20041;-47
2022/07/10 08:54:47;;;;;;;3.42;2.65;;;29.20;99.90;;;;;;4971040;28;20023;-46
2022/07/10 08:57:15;;;;;;;4.65;2.88;;;29.20;99.90;;;;;;4972079;28;20036;-47
2022/07/10 08:59:41;;;;;;;3.85;3.00;;;29.20;99.90;;;;;;4972031;28;20047;-47
2022/07/10 09:02:07;;;;;;;6.13;2.78;;;29.20;99.90;;;;;;4972050;28;20038;-50
2022/07/10 09:04:32;;;;;;;4.32;2.80;;;29.20;99.90;;;;;;4972051;28;20101;-47
2022/07/10 09:06:58;;;;;;;2.92;2.60;;;29.20;99.90;;;;;;4972023;28;20061;-47
2022/07/10 09:09:24;;;;;;;3.38;2.60;;;29.30;99.90;;;;;;4971820;28;20134;-46
2022/07/10 09:11:58;;;;;;;4.18;3.03;;;29.30;99.90;;;;;;4971952;28;20037;-47
2022/07/10 09:14:29;;;;;;;3.30;2.83;;;29.30;99.90;;;;;;4971968;28;20094;-46
2022/07/10 09:16:55;;;;;;;3.67;3.03;;;29.20;99.90;;;;;;4955078;28;20071;-46
2022/07/10 09:19:25;;;;;;;3.65;2.50;;;29.30;99.90;;;;;;4972153;28;20026;-47
2022/07/10 09:22:04;;;;;;;3.58;2.95;;;29.30;99.90;;;;;;4972090;28;20027;-46
2022/07/10 09:24:40;;;;;;;5.32;3.30;;;29.30;99.90;;;;;;4971882;28;20039;-47
2022/07/10 09:27:06;;;;;;;4.78;3.08;;;29.30;99.90;;;;;;4972197;28;20535;-46
2022/07/10 09:29:43;;;;;;;3.93;2.80;;;29.20;99.90;;;;;;4971831;28;20473;-47
2022/07/10 09:32:09;;;;;;;4.22;2.85;;;29.30;99.90;;;;;;4971844;28;20039;-46
2022/07/10 09:34:39;;;;;;;5.95;4.18;;;29.30;99.90;;;;;;4971860;28;20392;-45
2022/07/10 09:37:30;;;;;;;8.63;5.57;;;29.30;99.90;;;;;;4971696;28;20397;-46
2022/07/10 09:39:58;;;;;;;7.65;5.78;;;29.30;99.90;;;;;;4940999;28;20037;-46
2022/07/10 09:42:28;;;;;;;8.00;5.72;;;29.30;99.90;;;;;;4975238;28;20026;-46
2022/07/10 09:45:13;;;;;;;7.95;4.50;;;29.30;99.90;;;;;;4975259;28;20563;-46
2022/07/10 09:47:41;;;;;;;5.88;4.43;;;29.30;99.90;;;;;;4974824;28;20075;-46
2022/07/10 09:50:36;;;;;;;7.30;5.30;;;29.30;99.90;;;;;;4957519;28;20033;-46
2022/07/10 09:53:06;;;;;;;8.80;6.07;;;29.30;99.90;;;;;;4974963;28;20035;-45
2022/07/10 09:55:34;;;;;;;8.68;7.65;;;29.30;99.90;;;;;;4974827;28;20451;-45
2022/07/10 09:58:04;;;;;;;11.35;7.75;;;29.30;99.90;;;;;;4974834;28;20045;-46
2022/07/10 10:00:32;;;;;;;7.50;5.63;;;29.30;99.90;;;;;;4974632;28;20051;-46
2022/07/10 10:03:20;;;;;;;8.57;5.95;;;29.30;99.90;;;;;;4974837;28;20029;-46
2022/07/10 10:05:59;;;;;;;8.13;5.47;;;29.30;99.90;;;;;;4974747;28;20180;-46
2022/07/10 10:08:29;;;;;;;7.53;4.95;;;29.30;99.90;;;;;;4974639;28;20057;-47
2022/07/10 10:10:57;;;;;;;7.82;5.28;;;29.30;99.90;;;;;;4975078;28;20039;-46
2022/07/10 10:13:28;;;;;;;6.78;5.30;;;29.30;99.90;;;;;;4974884;28;20022;-46
2022/07/10 10:15:54;;;;;;;8.45;5.97;;;29.30;99.90;;;;;;4974803;28;20513;-45
2022/07/10 10:18:26;;;;;;;6.45;5.20;;;29.30;99.90;;;;;;4974664;28;20066;-45
2022/07/10 10:20:54;;;;;;;8.55;5.00;;;29.40;99.90;;;;;;4974509;28;20073;-45
2022/07/10 10:23:22;;;;;;;6.65;4.40;;;29.40;99.90;;;;;;4974319;28;20085;-46
2022/07/10 10:25:56;;;;;;;4.65;4.10;;;29.40;99.90;;;;;;4957075;28;20031;-45
2022/07/10 10:28:23;;;;;;;6.72;4.65;;;29.40;99.90;;;;;;4974405;28;20535;-47
2022/07/10 10:30:54;;;;;;;5.72;4.13;;;29.40;99.90;;;;;;4974080;28;20042;-46
2022/07/10 10:33:32;;;;;;;8.05;5.03;;;29.40;99.90;;;;;;4973996;28;20037;-46
2022/07/10 10:36:05;;;;;;;6.78;4.95;;;29.40;99.90;;;;;;4974151;28;20030;-46
2022/07/10 10:38:55;;;;;;;5.20;4.18;;;29.40;99.90;;;;;;4973918;28;20047;-46
2022/07/10 10:41:42;;;;;;;6.70;4.75;;;29.40;99.90;;;;;;4973964;28;20026;-45
2022/07/10 10:44:16;;;;;;;5.85;5.25;;;29.40;99.90;;;;;;4974107;28;20089;-46
2022/07/10 10:46:53;;;;;;;7.82;5.20;;;29.40;99.90;;;;;;4973967;28;20026;-46
2022/07/10 10:49:19;;;;;;;7.10;5.88;;;29.40;99.90;;;;;;4974014;28;20498;-46
2022/07/10 10:52:04;;;;;;;8.65;5.95;;;29.50;99.90;;;;;;4973069;28;20060;-46
2022/07/10 10:54:31;;;;;;;7.50;5.32;;;29.40;99.90;;;;;;4973709;28;20109;-46
2022/07/10 10:57:13;;;;;;;;;;;29.50;99.90;;;;;;4974405;28;20026;-46
2022/07/10 10:59:49;;;;;;;7.68;5.18;;;29.50;99.90;;;;;;4973560;28;19906;-46
2022/07/10 11:02:30;;;;;;;6.03;5.43;;;29.50;99.90;;;;;;4973535;28;20038;-46
2022/07/10 11:05:11;;;;;;;5.32;4.82;;;29.50;99.90;;;;;;4973666;28;20042;-46
2022/07/10 11:07:59;;;;;;;7.43;4.85;;;29.50;99.90;;;;;;4973510;28;20037;-46
2022/07/10 11:10:38;;;;;;;5.05;4.55;;;29.50;99.90;;;;;;4973689;28;20022;-46
2022/07/10 11:13:05;;;;;;;6.72;5.53;;;29.50;99.90;;;;;;4973581;28;20433;-46
2022/07/10 11:15:33;;;;;;;6.15;4.93;;;29.50;99.90;;;;;;4973357;28;20472;-45
2022/07/10 11:18:04;;;;;;;4.38;3.97;;;29.60;99.90;;;;;;4973550;28;20041;-46
2022/07/10 11:20:33;;;;;;;4.93;4.20;;;29.60;99.90;;;;;;4973353;28;20511;-46
2022/07/10 11:23:18;;;;;;;5.47;4.25;;;29.60;99.90;;;;;;4973690;28;20041;-46
2022/07/10 11:26:07;;;;;;;7.53;4.72;;;29.50;99.90;;;;;;4973123;28;20114;-46
2022/07/10 11:28:47;;;;;;;4.63;4.00;;;29.60;99.90;;;;;;4973186;28;20030;-46
2022/07/10 11:31:13;;;;;;;6.35;4.22;;;29.60;99.90;;;;;;4972804;28;20038;-46
2022/07/10 11:33:44;;;;;;;5.50;4.10;;;29.60;99.90;;;;;;4973063;28;20444;-46
2022/07/10 11:36:21;;;;;;;4.80;4.03;;;29.60;99.90;;;;;;4972896;28;20026;-46
2022/07/10 11:38:48;;;;;;;5.03;4.30;;;29.60;99.90;;;;;;4973060;28;20030;-47
2022/07/10 11:41:18;;;;;;;4.83;3.80;;;29.60;99.90;;;;;;4972799;28;20077;-46
2022/07/10 11:43:55;;;;;;;4.18;3.53;;;29.60;99.90;;;;;;4973127;28;20026;-46
2022/07/10 11:46:23;;;;;;;4.20;3.17;;;29.60;99.90;;;;;;4972961;28;20019;-48
2022/07/10 11:48:52;;;;;;;4.20;3.60;;;29.70;99.90;;;;;;4972824;28;20049;-46
2022/07/10 11:51:39;;;;;;;3.97;3.50;;;29.60;99.90;;;;;;4972814;28;20448;-47
2022/07/10 11:54:15;;;;;;;3.42;3.13;;;29.70;99.90;;;;;;4972730;28;20026;-47
2022/07/10 11:56:52;;;;;;;5.72;4.53;;;29.60;99.90;;;;;;4972637;28;20066;-47
2022/07/10 11:59:23;;;;;;;3.72;3.42;;;29.70;99.90;;;;;;4972721;28;20515;-47
2022/07/10 12:01:51;;;;;;;5.32;3.80;;;29.70;99.90;;;;;;4972255;28;20043;-47
2022/07/10 12:04:26;;;;;;;4.18;3.50;;;29.70;99.90;;;;;;4972277;28;20077;-46
2022/07/10 12:06:53;;;;;;;4.65;3.50;;;29.70;99.90;;;;;;4972632;28;20027;-47
2022/07/10 12:09:20;;;;;;;3.85;3.30;;;29.70;99.90;;;;;;4972441;28;20503;-50
2022/07/10 12:12:02;;;;;;;;;;;29.70;99.90;;;;;;4973006;28;20039;-46
2022/07/10 12:14:28;;;;;;;3.97;2.92;;;29.70;99.90;;;;;;4972402;28;19945;-46
2022/07/10 12:16:56;;;;;;;4.88;3.60;;;29.70;99.90;;;;;;4972410;28;20037;-45
2022/07/10 12:19:27;;;;;;;;;;;29.70;99.90;;;;;;4972724;28;20035;-46
2022/07/10 12:21:53;;;;;;;4.00;3.60;;;29.80;99.90;;;;;;4972393;28;19944;-47
2022/07/10 12:24:20;;;;;;;5.78;4.10;;;29.70;99.90;;;;;;4972463;28;20031;-46
2022/07/10 12:26:46;;;;;;;4.95;4.30;;;29.70;99.90;;;;;;4972460;28;20027;-45
2022/07/10 12:29:19;;;;;;;4.60;4.10;;;29.80;99.90;;;;;;4972333;28;20023;-46
2022/07/10 12:31:47;;;;;;;5.93;4.00;;;29.80;99.90;;;;;;4972209;28;20291;-47
2022/07/10 12:34:13;;;;;;;5.75;4.05;;;29.80;99.90;;;;;;4972327;28;20023;-46
2022/07/10 12:36:53;;;;;;;5.00;4.15;;;29.80;99.90;;;;;;4972237;28;20119;-46
2022/07/10 12:39:21;;;;;;;4.18;3.75;;;29.80;99.90;;;;;;4972400;28;20031;-46
2022/07/10 12:41:55;;;;;;;6.55;3.97;;;29.80;99.90;;;;;;4972057;28;20030;-46
2022/07/10 12:44:34;;;;;;;4.15;3.75;;;29.80;99.90;;;;;;4972037;28;20382;-46
2022/07/10 12:47:13;;;;;;;6.00;4.53;;;29.80;99.90;;;;;;4972214;28;20532;-45
2022/07/10 12:49:51;;;;;;;6.43;3.80;;;29.80;99.90;;;;;;4972181;28;20429;-46
2022/07/10 12:52:38;;;;;;;5.07;3.88;;;29.80;99.90;;;;;;4972019;28;20559;-46
2022/07/10 12:55:13;;;;;;;5.82;4.38;;;29.80;99.90;;;;;;4972388;28;20022;-46
2022/07/10 12:57:46;;;;;;;5.30;4.07;;;29.80;99.90;;;;;;4972131;28;20024;-45
2022/07/10 13:00:13;;;;;;;4.82;3.67;;;29.80;99.90;;;;;;4971822;28;20051;-45
2022/07/10 13:02:39;;;;;;;4.90;4.22;;;29.80;99.90;;;;;;4972070;28;20515;-48